sensor_id;sensor_type;location;lat;lon;timestamp;temperature;humidity
10233;DHT22;5161;48.174;11.756;2023-06-04T00:02:11;19.30;51.70
10233;DHT22;5161;48.174;11.756;2023-06-04T00:04:36;19.30;51.70
10233;DHT22;5161;48.174;11.756;2023-06-04T00:07:02;19.30;51.70
10233;DHT22;5161;48.174;11.756;2023-06-04T00:09:27;19.20;51.50
10233;DHT22;5161;48.174;11.756;2023-06-04T00:11:53;19.20;51.50
10233;DHT22;5161;48.174;11.756;2023-06-04T00:14:19;19.20;51.30
10233;DHT22;5161;48.174;11.756;2023-06-04T00:16:45;19.10;51.40
10233;DHT22;5161;48.174;11.756;2023-06-04T00:19:10;19.10;51.30
10233;DHT22;5161;48.174;11.756;2023-06-04T00:21:36;19.10;51.30
10233;DHT22;5161;48.174;11.756;2023-06-04T00:24:02;19.00;51.20
10233;DHT22;5161;48.174;11.756;2023-06-04T00:26:27;19.00;51.00
10233;DHT22;5161;48.174;11.756;2023-06-04T00:28:56;19.00;50.90
10233;DHT22;5161;48.174;11.756;2023-06-04T00:31:21;19.00;51.00
10233;DHT22;5161;48.174;11.756;2023-06-04T00:33:47;19.00;50.90
10233;DHT22;5161;48.174;11.756;2023-06-04T00:36:13;18.90;50.80
10233;DHT22;5161;48.174;11.756;2023-06-04T00:38:39;19.00;50.80
10233;DHT22;5161;48.174;11.756;2023-06-04T00:41:04;18.90;50.80
10233;DHT22;5161;48.174;11.756;2023-06-04T00:43:30;18.80;50.80
10233;DHT22;5161;48.174;11.756;2023-06-04T00:45:57;18.80;50.80
10233;DHT22;5161;48.174;11.756;2023-06-04T00:48:23;18.70;50.70
10233;DHT22;5161;48.174;11.756;2023-06-04T00:50:49;18.70;50.90
10233;DHT22;5161;48.174;11.756;2023-06-04T00:53:15;18.70;50.90
10233;DHT22;5161;48.174;11.756;2023-06-04T00:55:41;18.60;50.70
10233;DHT22;5161;48.174;11.756;2023-06-04T00:58:08;18.60;50.70
10233;DHT22;5161;48.174;11.756;2023-06-04T01:00:35;18.60;50.60
10233;DHT22;5161;48.174;11.756;2023-06-04T01:03:04;18.60;50.60
10233;DHT22;5161;48.174;11.756;2023-06-04T01:05:43;18.60;50.40
10233;DHT22;5161;48.174;11.756;2023-06-04T01:08:11;18.50;50.40
10233;DHT22;5161;48.174;11.756;2023-06-04T01:10:37;18.60;50.10
10233;DHT22;5161;48.174;11.756;2023-06-04T01:13:03;18.50;50.00
10233;DHT22;5161;48.174;11.756;2023-06-04T01:15:28;18.50;49.90
10233;DHT22;5161;48.174;11.756;2023-06-04T01:18:00;18.50;49.80
10233;DHT22;5161;48.174;11.756;2023-06-04T01:20:33;18.50;49.70
10233;DHT22;5161;48.174;11.756;2023-06-04T01:25:38;18.50;50.10
10233;DHT22;5161;48.174;11.756;2023-06-04T01:28:06;18.50;49.80
10233;DHT22;5161;48.174;11.756;2023-06-04T01:30:34;18.50;49.70
10233;DHT22;5161;48.174;11.756;2023-06-04T01:33:00;18.40;49.90
10233;DHT22;5161;48.174;11.756;2023-06-04T01:35:27;18.40;49.90
10233;DHT22;5161;48.174;11.756;2023-06-04T01:37:53;18.30;50.00
10233;DHT22;5161;48.174;11.756;2023-06-04T01:40:20;18.30;50.00
10233;DHT22;5161;48.174;11.756;2023-06-04T01:42:45;18.30;50.00
10233;DHT22;5161;48.174;11.756;2023-06-04T01:45:11;18.30;50.00
10233;DHT22;5161;48.174;11.756;2023-06-04T01:47:37;18.20;49.90
10233;DHT22;5161;48.174;11.756;2023-06-04T01:50:06;18.20;50.20
10233;DHT22;5161;48.174;11.756;2023-06-04T01:52:38;18.20;50.20
10233;DHT22;5161;48.174;11.756;2023-06-04T01:55:11;18.20;50.20
10233;DHT22;5161;48.174;11.756;2023-06-04T01:57:40;18.20;50.20
10233;DHT22;5161;48.174;11.756;2023-06-04T02:00:07;18.10;50.40
10233;DHT22;5161;48.174;11.756;2023-06-04T02:02:34;18.10;50.00
10233;DHT22;5161;48.174;11.756;2023-06-04T02:05:01;18.10;50.00
10233;DHT22;5161;48.174;11.756;2023-06-04T02:07:27;18.10;50.10
10233;DHT22;5161;48.174;11.756;2023-06-04T02:09:52;18.00;50.10
10233;DHT22;5161;48.174;11.756;2023-06-04T02:12:18;18.00;50.30
10233;DHT22;5161;48.174;11.756;2023-06-04T02:14:44;18.10;50.50
10233;DHT22;5161;48.174;11.756;2023-06-04T02:17:12;18.00;50.60
10233;DHT22;5161;48.174;11.756;2023-06-04T02:19:40;17.90;50.60
10233;DHT22;5161;48.174;11.756;2023-06-04T02:22:12;17.90;50.70
10233;DHT22;5161;48.174;11.756;2023-06-04T02:24:38;17.90;50.90
10233;DHT22;5161;48.174;11.756;2023-06-04T02:27:05;17.90;51.10
10233;DHT22;5161;48.174;11.756;2023-06-04T02:29:31;17.90;51.00
10233;DHT22;5161;48.174;11.756;2023-06-04T02:31:57;17.80;51.00
10233;DHT22;5161;48.174;11.756;2023-06-04T02:34:22;17.80;51.00
10233;DHT22;5161;48.174;11.756;2023-06-04T02:36:49;17.80;51.20
10233;DHT22;5161;48.174;11.756;2023-06-04T02:39:19;17.70;51.10
10233;DHT22;5161;48.174;11.756;2023-06-04T02:41:45;17.70;51.10
10233;DHT22;5161;48.174;11.756;2023-06-04T02:44:11;17.70;51.10
10233;DHT22;5161;48.174;11.756;2023-06-04T02:46:37;17.70;51.20
10233;DHT22;5161;48.174;11.756;2023-06-04T02:49:03;17.70;51.30
10233;DHT22;5161;48.174;11.756;2023-06-04T02:51:29;17.70;51.50
10233;DHT22;5161;48.174;11.756;2023-06-04T02:53:55;17.60;51.50
10233;DHT22;5161;48.174;11.756;2023-06-04T02:56:21;17.50;51.50
10233;DHT22;5161;48.174;11.756;2023-06-04T02:58:54;17.50;51.60
10233;DHT22;5161;48.174;11.756;2023-06-04T03:01:26;17.40;51.80
10233;DHT22;5161;48.174;11.756;2023-06-04T03:03:52;17.40;51.90
10233;DHT22;5161;48.174;11.756;2023-06-04T03:06:19;17.40;51.90
10233;DHT22;5161;48.174;11.756;2023-06-04T03:08:46;17.40;51.90
10233;DHT22;5161;48.174;11.756;2023-06-04T03:11:12;17.40;52.10
10233;DHT22;5161;48.174;11.756;2023-06-04T03:13:38;17.30;52.00
10233;DHT22;5161;48.174;11.756;2023-06-04T03:16:04;17.30;52.00
10233;DHT22;5161;48.174;11.756;2023-06-04T03:18:42;17.30;51.90
10233;DHT22;5161;48.174;11.756;2023-06-04T03:21:08;17.20;51.30
10233;DHT22;5161;48.174;11.756;2023-06-04T03:23:35;17.20;52.20
10233;DHT22;5161;48.174;11.756;2023-06-04T03:26:01;17.20;52.10
10233;DHT22;5161;48.174;11.756;2023-06-04T03:28:27;17.20;51.90
10233;DHT22;5161;48.174;11.756;2023-06-04T03:30:53;17.20;51.80
10233;DHT22;5161;48.174;11.756;2023-06-04T03:33:19;17.20;51.80
10233;DHT22;5161;48.174;11.756;2023-06-04T03:35:44;17.20;51.90
10233;DHT22;5161;48.174;11.756;2023-06-04T03:38:11;17.10;52.10
10233;DHT22;5161;48.174;11.756;2023-06-04T03:40:36;17.10;52.10
10233;DHT22;5161;48.174;11.756;2023-06-04T03:43:02;17.10;52.20
10233;DHT22;5161;48.174;11.756;2023-06-04T03:45:30;17.10;52.30
10233;DHT22;5161;48.174;11.756;2023-06-04T03:47:55;17.10;52.30
10233;DHT22;5161;48.174;11.756;2023-06-04T03:50:21;17.10;52.40
10233;DHT22;5161;48.174;11.756;2023-06-04T03:52:48;17.10;52.50
10233;DHT22;5161;48.174;11.756;2023-06-04T03:55:13;17.10;52.70
10233;DHT22;5161;48.174;11.756;2023-06-04T03:57:39;17.10;52.60
10233;DHT22;5161;48.174;11.756;2023-06-04T04:00:09;17.10;52.70
10233;DHT22;5161;48.174;11.756;2023-06-04T04:02:41;17.10;52.50
10233;DHT22;5161;48.174;11.756;2023-06-04T04:05:07;17.10;52.80
10233;DHT22;5161;48.174;11.756;2023-06-04T04:07:33;17.10;52.70
10233;DHT22;5161;48.174;11.756;2023-06-04T04:09:58;17.10;52.80
10233;DHT22;5161;48.174;11.756;2023-06-04T04:12:24;17.10;52.80
10233;DHT22;5161;48.174;11.756;2023-06-04T04:14:49;17.10;52.90
10233;DHT22;5161;48.174;11.756;2023-06-04T04:17:49;17.10;53.00
10233;DHT22;5161;48.174;11.756;2023-06-04T04:20:14;17.10;52.40
10233;DHT22;5161;48.174;11.756;2023-06-04T04:22:41;17.10;53.20
10233;DHT22;5161;48.174;11.756;2023-06-04T04:25:08;17.10;53.20
10233;DHT22;5161;48.174;11.756;2023-06-04T04:27:34;17.10;52.80
10233;DHT22;5161;48.174;11.756;2023-06-04T04:30:00;17.10;53.20
10233;DHT22;5161;48.174;11.756;2023-06-04T04:32:26;17.20;53.30
10233;DHT22;5161;48.174;11.756;2023-06-04T04:34:53;17.10;53.30
10233;DHT22;5161;48.174;11.756;2023-06-04T04:37:20;17.20;53.50
10233;DHT22;5161;48.174;11.756;2023-06-04T04:39:47;17.20;53.30
10233;DHT22;5161;48.174;11.756;2023-06-04T04:42:12;17.20;53.30
10233;DHT22;5161;48.174;11.756;2023-06-04T04:44:38;17.20;53.30
10233;DHT22;5161;48.174;11.756;2023-06-04T04:47:03;17.30;53.40
10233;DHT22;5161;48.174;11.756;2023-06-04T04:49:29;17.20;53.10
10233;DHT22;5161;48.174;11.756;2023-06-04T04:51:54;17.20;53.10
10233;DHT22;5161;48.174;11.756;2023-06-04T04:54:20;17.20;53.20
10233;DHT22;5161;48.174;11.756;2023-06-04T04:56:45;17.20;53.20
10233;DHT22;5161;48.174;11.756;2023-06-04T04:59:11;17.20;53.10
10233;DHT22;5161;48.174;11.756;2023-06-04T05:01:37;17.20;53.00
10233;DHT22;5161;48.174;11.756;2023-06-04T05:04:02;17.20;53.00
10233;DHT22;5161;48.174;11.756;2023-06-04T05:06:28;17.20;53.00
10233;DHT22;5161;48.174;11.756;2023-06-04T05:08:53;17.30;53.10
10233;DHT22;5161;48.174;11.756;2023-06-04T05:11:19;17.30;52.90
10233;DHT22;5161;48.174;11.756;2023-06-04T05:13:45;17.30;53.00
10233;DHT22;5161;48.174;11.756;2023-06-04T05:16:11;17.30;53.00
10233;DHT22;5161;48.174;11.756;2023-06-04T05:18:37;17.30;53.00
10233;DHT22;5161;48.174;11.756;2023-06-04T05:21:07;17.30;53.10
10233;DHT22;5161;48.174;11.756;2023-06-04T05:23:33;17.40;53.10
10233;DHT22;5161;48.174;11.756;2023-06-04T05:26:02;17.40;52.80
10233;DHT22;5161;48.174;11.756;2023-06-04T05:28:28;17.40;52.90
10233;DHT22;5161;48.174;11.756;2023-06-04T05:30:54;17.40;52.90
10233;DHT22;5161;48.174;11.756;2023-06-04T05:33:25;17.50;52.40
10233;DHT22;5161;48.174;11.756;2023-06-04T05:35:51;17.50;52.80
10233;DHT22;5161;48.174;11.756;2023-06-04T05:38:20;17.50;52.30
10233;DHT22;5161;48.174;11.756;2023-06-04T05:40:46;17.50;52.80
10233;DHT22;5161;48.174;11.756;2023-06-04T05:43:12;17.50;52.80
10233;DHT22;5161;48.174;11.756;2023-06-04T05:45:37;17.50;52.50
10233;DHT22;5161;48.174;11.756;2023-06-04T05:48:06;17.50;52.70
10233;DHT22;5161;48.174;11.756;2023-06-04T05:50:31;17.50;52.60
10233;DHT22;5161;48.174;11.756;2023-06-04T05:52:57;17.50;52.50
10233;DHT22;5161;48.174;11.756;2023-06-04T05:55:23;17.60;52.40
10233;DHT22;5161;48.174;11.756;2023-06-04T05:57:49;17.70;52.40
10233;DHT22;5161;48.174;11.756;2023-06-04T06:00:17;17.70;52.30
10233;DHT22;5161;48.174;11.756;2023-06-04T06:02:43;17.70;52.40
10233;DHT22;5161;48.174;11.756;2023-06-04T06:05:10;17.80;52.40
10233;DHT22;5161;48.174;11.756;2023-06-04T06:07:36;17.80;52.10
10233;DHT22;5161;48.174;11.756;2023-06-04T06:10:02;17.80;52.30
10233;DHT22;5161;48.174;11.756;2023-06-04T06:12:28;17.90;52.70
10233;DHT22;5161;48.174;11.756;2023-06-04T06:14:54;17.90;52.60
10233;DHT22;5161;48.174;11.756;2023-06-04T06:17:19;17.90;52.60
10233;DHT22;5161;48.174;11.756;2023-06-04T06:19:45;17.90;52.60
10233;DHT22;5161;48.174;11.756;2023-06-04T06:22:11;18.00;52.60
10233;DHT22;5161;48.174;11.756;2023-06-04T06:24:37;18.00;52.60
10233;DHT22;5161;48.174;11.756;2023-06-04T06:27:03;18.10;52.60
10233;DHT22;5161;48.174;11.756;2023-06-04T06:29:28;18.10;52.40
10233;DHT22;5161;48.174;11.756;2023-06-04T06:31:54;18.10;52.70
10233;DHT22;5161;48.174;11.756;2023-06-04T06:34:20;18.10;52.80
10233;DHT22;5161;48.174;11.756;2023-06-04T06:36:45;18.20;52.90
10233;DHT22;5161;48.174;11.756;2023-06-04T06:39:12;18.10;52.80
10233;DHT22;5161;48.174;11.756;2023-06-04T06:41:37;18.10;53.00
10233;DHT22;5161;48.174;11.756;2023-06-04T06:44:06;18.20;52.40
10233;DHT22;5161;48.174;11.756;2023-06-04T06:46:32;18.20;52.80
10233;DHT22;5161;48.174;11.756;2023-06-04T06:48:57;18.30;52.70
10233;DHT22;5161;48.174;11.756;2023-06-04T06:51:23;18.30;52.80
10233;DHT22;5161;48.174;11.756;2023-06-04T06:53:49;18.40;52.70
10233;DHT22;5161;48.174;11.756;2023-06-04T06:56:16;18.40;52.70
10233;DHT22;5161;48.174;11.756;2023-06-04T06:58:43;18.40;52.60
10233;DHT22;5161;48.174;11.756;2023-06-04T07:01:09;18.50;53.00
10233;DHT22;5161;48.174;11.756;2023-06-04T07:03:35;18.50;53.00
10233;DHT22;5161;48.174;11.756;2023-06-04T07:06:01;18.50;52.90
10233;DHT22;5161;48.174;11.756;2023-06-04T07:08:26;18.60;53.10
10233;DHT22;5161;48.174;11.756;2023-06-04T07:10:53;18.60;53.10
10233;DHT22;5161;48.174;11.756;2023-06-04T07:13:19;18.70;53.10
10233;DHT22;5161;48.174;11.756;2023-06-04T07:15:45;18.70;53.10
10233;DHT22;5161;48.174;11.756;2023-06-04T07:18:10;18.80;53.10
10233;DHT22;5161;48.174;11.756;2023-06-04T07:20:36;18.80;53.00
10233;DHT22;5161;48.174;11.756;2023-06-04T07:23:01;18.90;53.20
10233;DHT22;5161;48.174;11.756;2023-06-04T07:25:27;18.90;53.20
10233;DHT22;5161;48.174;11.756;2023-06-04T07:27:53;18.90;53.20
10233;DHT22;5161;48.174;11.756;2023-06-04T07:30:18;18.80;53.10
10233;DHT22;5161;48.174;11.756;2023-06-04T07:32:53;18.90;53.20
10233;DHT22;5161;48.174;11.756;2023-06-04T07:35:18;18.90;52.90
10233;DHT22;5161;48.174;11.756;2023-06-04T07:37:44;18.90;53.30
10233;DHT22;5161;48.174;11.756;2023-06-04T07:40:13;18.90;53.30
10233;DHT22;5161;48.174;11.756;2023-06-04T07:42:39;19.00;53.30
10233;DHT22;5161;48.174;11.756;2023-06-04T07:45:05;19.10;53.80
10233;DHT22;5161;48.174;11.756;2023-06-04T07:47:32;19.10;53.20
10233;DHT22;5161;48.174;11.756;2023-06-04T07:49:58;19.20;53.20
10233;DHT22;5161;48.174;11.756;2023-06-04T07:52:23;19.20;53.30
10233;DHT22;5161;48.174;11.756;2023-06-04T07:54:49;19.30;53.20
10233;DHT22;5161;48.174;11.756;2023-06-04T07:57:14;19.30;53.40
10233;DHT22;5161;48.174;11.756;2023-06-04T07:59:40;19.30;53.40
10233;DHT22;5161;48.174;11.756;2023-06-04T08:02:06;19.30;53.10
10233;DHT22;5161;48.174;11.756;2023-06-04T08:04:31;19.30;53.30
10233;DHT22;5161;48.174;11.756;2023-06-04T08:06:57;19.30;53.10
10233;DHT22;5161;48.174;11.756;2023-06-04T08:09:23;19.30;53.20
10233;DHT22;5161;48.174;11.756;2023-06-04T08:11:48;19.40;53.30
10233;DHT22;5161;48.174;11.756;2023-06-04T08:14:14;19.40;53.20
10233;DHT22;5161;48.174;11.756;2023-06-04T08:16:40;19.50;53.30
10233;DHT22;5161;48.174;11.756;2023-06-04T08:19:06;19.40;53.10
10233;DHT22;5161;48.174;11.756;2023-06-04T08:21:33;19.50;53.30
10233;DHT22;5161;48.174;11.756;2023-06-04T08:23:59;19.60;53.40
10233;DHT22;5161;48.174;11.756;2023-06-04T08:26:24;19.60;53.50
10233;DHT22;5161;48.174;11.756;2023-06-04T08:28:51;19.60;53.30
10233;DHT22;5161;48.174;11.756;2023-06-04T08:31:16;19.70;53.10
10233;DHT22;5161;48.174;11.756;2023-06-04T08:33:44;19.70;53.10
10233;DHT22;5161;48.174;11.756;2023-06-04T08:36:10;19.80;53.20
10233;DHT22;5161;48.174;11.756;2023-06-04T08:38:35;19.80;53.20
10233;DHT22;5161;48.174;11.756;2023-06-04T08:41:15;19.80;53.20
10233;DHT22;5161;48.174;11.756;2023-06-04T08:43:42;19.90;53.00
10233;DHT22;5161;48.174;11.756;2023-06-04T08:46:09;19.90;52.90
10233;DHT22;5161;48.174;11.756;2023-06-04T08:48:37;19.90;52.70
10233;DHT22;5161;48.174;11.756;2023-06-04T08:51:06;19.90;52.90
10233;DHT22;5161;48.174;11.756;2023-06-04T08:53:35;20.00;52.70
10233;DHT22;5161;48.174;11.756;2023-06-04T08:56:02;20.00;52.70
10233;DHT22;5161;48.174;11.756;2023-06-04T08:58:31;20.00;52.90
10233;DHT22;5161;48.174;11.756;2023-06-04T09:00:56;20.10;52.60
10233;DHT22;5161;48.174;11.756;2023-06-04T09:03:22;20.10;53.00
10233;DHT22;5161;48.174;11.756;2023-06-04T09:05:50;20.20;52.90
10233;DHT22;5161;48.174;11.756;2023-06-04T09:08:17;20.20;51.90
10233;DHT22;5161;48.174;11.756;2023-06-04T09:10:46;20.20;52.90
10233;DHT22;5161;48.174;11.756;2023-06-04T09:13:14;20.20;52.80
10233;DHT22;5161;48.174;11.756;2023-06-04T09:15:41;20.30;52.90
10233;DHT22;5161;48.174;11.756;2023-06-04T09:18:06;20.30;52.70
10233;DHT22;5161;48.174;11.756;2023-06-04T09:20:32;20.40;52.90
10233;DHT22;5161;48.174;11.756;2023-06-04T09:22:58;20.40;52.80
10233;DHT22;5161;48.174;11.756;2023-06-04T09:25:25;20.50;53.10
10233;DHT22;5161;48.174;11.756;2023-06-04T09:27:53;20.50;53.10
10233;DHT22;5161;48.174;11.756;2023-06-04T09:30:19;20.50;51.80
10233;DHT22;5161;48.174;11.756;2023-06-04T09:32:45;20.50;52.50
10233;DHT22;5161;48.174;11.756;2023-06-04T09:35:16;20.60;52.30
10233;DHT22;5161;48.174;11.756;2023-06-04T09:38:04;20.60;52.10
10233;DHT22;5161;48.174;11.756;2023-06-04T09:40:36;20.60;52.30
10233;DHT22;5161;48.174;11.756;2023-06-04T09:43:02;20.70;51.40
10233;DHT22;5161;48.174;11.756;2023-06-04T09:45:29;20.70;52.30
10233;DHT22;5161;48.174;11.756;2023-06-04T09:47:55;20.80;52.40
10233;DHT22;5161;48.174;11.756;2023-06-04T09:50:29;20.80;52.00
10233;DHT22;5161;48.174;11.756;2023-06-04T09:52:55;20.80;52.10
10233;DHT22;5161;48.174;11.756;2023-06-04T09:55:21;20.80;51.80
10233;DHT22;5161;48.174;11.756;2023-06-04T09:57:48;20.90;51.90
10233;DHT22;5161;48.174;11.756;2023-06-04T10:00:22;21.00;50.90
10233;DHT22;5161;48.174;11.756;2023-06-04T10:02:48;20.90;51.00
10233;DHT22;5161;48.174;11.756;2023-06-04T10:05:15;21.00;51.30
10233;DHT22;5161;48.174;11.756;2023-06-04T10:07:45;21.00;50.50
10233;DHT22;5161;48.174;11.756;2023-06-04T10:10:15;21.00;51.80
10233;DHT22;5161;48.174;11.756;2023-06-04T10:12:42;21.10;51.80
10233;DHT22;5161;48.174;11.756;2023-06-04T10:15:12;21.10;51.70
10233;DHT22;5161;48.174;11.756;2023-06-04T10:17:39;21.10;51.20
10233;DHT22;5161;48.174;11.756;2023-06-04T10:20:06;21.20;51.80
10233;DHT22;5161;48.174;11.756;2023-06-04T10:22:37;21.20;51.60
10233;DHT22;5161;48.174;11.756;2023-06-04T10:25:03;21.20;51.70
10233;DHT22;5161;48.174;11.756;2023-06-04T10:27:33;21.20;51.70
10233;DHT22;5161;48.174;11.756;2023-06-04T10:30:01;21.20;51.50
10233;DHT22;5161;48.174;11.756;2023-06-04T10:32:29;21.30;51.40
10233;DHT22;5161;48.174;11.756;2023-06-04T10:34:55;21.30;51.50
10233;DHT22;5161;48.174;11.756;2023-06-04T10:37:24;21.30;51.70
10233;DHT22;5161;48.174;11.756;2023-06-04T10:39:54;21.40;51.50
10233;DHT22;5161;48.174;11.756;2023-06-04T10:42:20;21.40;51.40
10233;DHT22;5161;48.174;11.756;2023-06-04T10:44:54;21.50;51.20
10233;DHT22;5161;48.174;11.756;2023-06-04T10:47:27;21.50;51.40
10233;DHT22;5161;48.174;11.756;2023-06-04T10:50:15;21.50;50.20
10233;DHT22;5161;48.174;11.756;2023-06-04T10:52:52;21.50;50.70
10233;DHT22;5161;48.174;11.756;2023-06-04T10:55:18;21.50;51.20
10233;DHT22;5161;48.174;11.756;2023-06-04T10:57:57;21.50;51.00
10233;DHT22;5161;48.174;11.756;2023-06-04T11:00:40;21.50;51.00
10233;DHT22;5161;48.174;11.756;2023-06-04T11:03:07;21.60;50.80
10233;DHT22;5161;48.174;11.756;2023-06-04T11:05:40;21.70;51.00
10233;DHT22;5161;48.174;11.756;2023-06-04T11:08:06;21.70;50.20
10233;DHT22;5161;48.174;11.756;2023-06-04T11:10:37;21.70;51.20
10233;DHT22;5161;48.174;11.756;2023-06-04T11:13:04;21.70;50.00
10233;DHT22;5161;48.174;11.756;2023-06-04T11:15:41;21.70;49.90
10233;DHT22;5161;48.174;11.756;2023-06-04T11:18:06;21.80;51.00
10233;DHT22;5161;48.174;11.756;2023-06-04T11:20:32;21.80;50.40
10233;DHT22;5161;48.174;11.756;2023-06-04T11:22:58;21.90;49.10
10233;DHT22;5161;48.174;11.756;2023-06-04T11:25:29;21.80;50.50
10233;DHT22;5161;48.174;11.756;2023-06-04T11:27:56;21.80;49.50
10233;DHT22;5161;48.174;11.756;2023-06-04T11:30:23;21.80;50.30
10233;DHT22;5161;48.174;11.756;2023-06-04T11:32:50;21.90;50.00
10233;DHT22;5161;48.174;11.756;2023-06-04T11:35:15;21.90;49.40
10233;DHT22;5161;48.174;11.756;2023-06-04T11:37:41;22.00;50.10
10233;DHT22;5161;48.174;11.756;2023-06-04T11:40:19;22.00;50.00
10233;DHT22;5161;48.174;11.756;2023-06-04T11:42:47;22.00;50.20
10233;DHT22;5161;48.174;11.756;2023-06-04T11:45:14;22.10;49.70
10233;DHT22;5161;48.174;11.756;2023-06-04T11:47:44;22.10;49.90
10233;DHT22;5161;48.174;11.756;2023-06-04T11:50:11;22.10;50.00
10233;DHT22;5161;48.174;11.756;2023-06-04T11:52:37;22.20;49.80
10233;DHT22;5161;48.174;11.756;2023-06-04T11:55:03;22.30;49.50
10233;DHT22;5161;48.174;11.756;2023-06-04T11:57:30;22.30;49.40
10233;DHT22;5161;48.174;11.756;2023-06-04T11:59:56;22.40;50.00
10233;DHT22;5161;48.174;11.756;2023-06-04T12:02:21;22.40;50.20
10233;DHT22;5161;48.174;11.756;2023-06-04T12:04:47;22.50;50.00
10233;DHT22;5161;48.174;11.756;2023-06-04T12:07:20;22.50;50.20
10233;DHT22;5161;48.174;11.756;2023-06-04T12:09:46;22.60;50.30
10233;DHT22;5161;48.174;11.756;2023-06-04T12:12:12;22.60;49.80
10233;DHT22;5161;48.174;11.756;2023-06-04T12:14:38;22.60;50.00
10233;DHT22;5161;48.174;11.756;2023-06-04T12:17:08;22.50;49.90
10233;DHT22;5161;48.174;11.756;2023-06-04T12:19:48;22.60;49.80
10233;DHT22;5161;48.174;11.756;2023-06-04T12:22:14;22.60;48.90
10233;DHT22;5161;48.174;11.756;2023-06-04T12:24:51;22.70;49.50
10233;DHT22;5161;48.174;11.756;2023-06-04T12:27:20;22.80;48.40
10233;DHT22;5161;48.174;11.756;2023-06-04T12:30:01;22.80;49.60
10233;DHT22;5161;48.174;11.756;2023-06-04T12:32:27;22.80;47.90
10233;DHT22;5161;48.174;11.756;2023-06-04T12:34:53;22.80;49.00
10233;DHT22;5161;48.174;11.756;2023-06-04T12:37:21;22.80;47.40
10233;DHT22;5161;48.174;11.756;2023-06-04T12:39:46;22.90;48.20
10233;DHT22;5161;48.174;11.756;2023-06-04T12:42:12;22.90;49.20
10233;DHT22;5161;48.174;11.756;2023-06-04T12:44:41;22.90;48.10
10233;DHT22;5161;48.174;11.756;2023-06-04T12:47:07;22.90;48.30
10233;DHT22;5161;48.174;11.756;2023-06-04T12:49:33;22.90;47.90
10233;DHT22;5161;48.174;11.756;2023-06-04T12:51:59;22.90;48.50
10233;DHT22;5161;48.174;11.756;2023-06-04T12:54:25;23.00;48.50
10233;DHT22;5161;48.174;11.756;2023-06-04T12:56:52;23.10;48.10
10233;DHT22;5161;48.174;11.756;2023-06-04T12:59:18;23.20;48.40
10233;DHT22;5161;48.174;11.756;2023-06-04T13:01:43;23.20;48.70
10233;DHT22;5161;48.174;11.756;2023-06-04T13:04:09;23.20;48.80
10233;DHT22;5161;48.174;11.756;2023-06-04T13:06:35;23.20;48.70
10233;DHT22;5161;48.174;11.756;2023-06-04T13:09:03;23.20;48.80
10233;DHT22;5161;48.174;11.756;2023-06-04T13:11:43;23.30;48.40
10233;DHT22;5161;48.174;11.756;2023-06-04T13:14:09;23.40;48.20
10233;DHT22;5161;48.174;11.756;2023-06-04T13:16:35;23.40;48.60
10233;DHT22;5161;48.174;11.756;2023-06-04T13:19:01;23.40;48.60
10233;DHT22;5161;48.174;11.756;2023-06-04T13:21:27;23.40;47.60
10233;DHT22;5161;48.174;11.756;2023-06-04T13:23:53;23.40;48.20
10233;DHT22;5161;48.174;11.756;2023-06-04T13:26:19;23.40;48.10
10233;DHT22;5161;48.174;11.756;2023-06-04T13:28:45;23.40;47.90
10233;DHT22;5161;48.174;11.756;2023-06-04T13:31:10;23.30;47.20
10233;DHT22;5161;48.174;11.756;2023-06-04T13:33:36;23.40;47.90
10233;DHT22;5161;48.174;11.756;2023-06-04T13:36:05;23.40;47.20
10233;DHT22;5161;48.174;11.756;2023-06-04T13:38:31;23.50;47.50
10233;DHT22;5161;48.174;11.756;2023-06-04T13:40:57;23.60;48.20
10233;DHT22;5161;48.174;11.756;2023-06-04T13:43:23;23.70;48.00
10233;DHT22;5161;48.174;11.756;2023-06-04T13:45:48;23.70;47.70
10233;DHT22;5161;48.174;11.756;2023-06-04T13:48:14;23.70;47.60
10233;DHT22;5161;48.174;11.756;2023-06-04T13:50:41;23.70;47.90
10233;DHT22;5161;48.174;11.756;2023-06-04T13:53:08;23.70;47.70
10233;DHT22;5161;48.174;11.756;2023-06-04T13:55:34;23.70;47.60
10233;DHT22;5161;48.174;11.756;2023-06-04T13:58:00;23.70;47.90
10233;DHT22;5161;48.174;11.756;2023-06-04T14:00:26;23.70;47.50
10233;DHT22;5161;48.174;11.756;2023-06-04T14:02:52;23.70;47.30
10233;DHT22;5161;48.174;11.756;2023-06-04T14:05:20;23.60;47.20
10233;DHT22;5161;48.174;11.756;2023-06-04T14:07:45;23.60;46.50
10233;DHT22;5161;48.174;11.756;2023-06-04T14:10:11;23.60;47.10
10233;DHT22;5161;48.174;11.756;2023-06-04T14:12:38;23.50;47.40
10233;DHT22;5161;48.174;11.756;2023-06-04T14:15:06;23.50;47.50
10233;DHT22;5161;48.174;11.756;2023-06-04T14:17:32;23.50;47.30
10233;DHT22;5161;48.174;11.756;2023-06-04T14:19:59;23.50;47.50
10233;DHT22;5161;48.174;11.756;2023-06-04T14:22:25;23.50;47.20
10233;DHT22;5161;48.174;11.756;2023-06-04T14:24:50;23.50;47.00
10233;DHT22;5161;48.174;11.756;2023-06-04T14:27:16;23.60;47.40
10233;DHT22;5161;48.174;11.756;2023-06-04T14:29:42;23.70;47.30
10233;DHT22;5161;48.174;11.756;2023-06-04T14:32:07;23.90;47.50
10233;DHT22;5161;48.174;11.756;2023-06-04T14:34:33;23.90;47.50
10233;DHT22;5161;48.174;11.756;2023-06-04T14:36:59;24.00;47.10
10233;DHT22;5161;48.174;11.756;2023-06-04T14:39:28;24.10;47.80
10233;DHT22;5161;48.174;11.756;2023-06-04T14:41:54;24.20;47.50
10233;DHT22;5161;48.174;11.756;2023-06-04T14:44:20;24.10;47.40
10233;DHT22;5161;48.174;11.756;2023-06-04T14:46:46;24.10;47.20
10233;DHT22;5161;48.174;11.756;2023-06-04T14:49:12;24.10;47.30
10233;DHT22;5161;48.174;11.756;2023-06-04T14:51:37;24.00;47.00
10233;DHT22;5161;48.174;11.756;2023-06-04T14:54:03;24.00;46.30
10233;DHT22;5161;48.174;11.756;2023-06-04T14:56:29;23.90;46.90
10233;DHT22;5161;48.174;11.756;2023-06-04T14:58:56;23.90;46.80
10233;DHT22;5161;48.174;11.756;2023-06-04T15:01:21;23.80;47.10
10233;DHT22;5161;48.174;11.756;2023-06-04T15:03:50;23.80;46.90
10233;DHT22;5161;48.174;11.756;2023-06-04T15:06:16;23.70;46.50
10233;DHT22;5161;48.174;11.756;2023-06-04T15:08:41;23.70;46.40
10233;DHT22;5161;48.174;11.756;2023-06-04T15:11:07;23.70;46.50
10233;DHT22;5161;48.174;11.756;2023-06-04T15:13:32;23.70;46.50
10233;DHT22;5161;48.174;11.756;2023-06-04T15:15:58;23.70;46.40
10233;DHT22;5161;48.174;11.756;2023-06-04T15:18:23;23.70;46.60
10233;DHT22;5161;48.174;11.756;2023-06-04T15:20:49;23.80;46.50
10233;DHT22;5161;48.174;11.756;2023-06-04T15:23:15;23.80;45.70
10233;DHT22;5161;48.174;11.756;2023-06-04T15:25:41;23.80;46.40
10233;DHT22;5161;48.174;11.756;2023-06-04T15:28:07;23.70;46.20
10233;DHT22;5161;48.174;11.756;2023-06-04T15:30:32;23.70;46.20
10233;DHT22;5161;48.174;11.756;2023-06-04T15:32:58;23.70;46.20